Time;durP1;ratioP1;P1;durP2;ratioP2;P2;SDS_P1;SDS_P2;PMS_P1;PMS_P2;Temp;Humidity;BMP_temperature;BMP_pressure;BME280_temperature;BME280_humidity;BME280_pressure;Samples;Min_cycle;Max_cycle;Signal;HPM_P1;HPM_P2
2023/10/15 00:02:01;;;;;;;;;3.20;3.00;;;;;17.60;100.00;98368.94;6198457;28;96461;-69
2023/10/15 00:05:05;;;;;;;;;7.00;6.40;;;;;17.64;100.00;98376.28;6169261;28;96865;-69
2023/10/15 00:08:09;;;;;;;;;5.00;4.00;;;;;17.57;100.00;98388.56;6187954;28;96410;-69
2023/10/15 00:11:17;;;;;;;;;2.00;2.00;;;;;17.49;100.00;98400.06;6170496;28;96367;-69
2023/10/15 00:14:20;;;;;;;;;3.40;3.00;;;;;17.27;100.00;98398.47;6182659;28;96380;-69
2023/10/15 00:17:24;;;;;;;;;4.00;4.00;;;;;17.36;100.00;98397.91;6194418;28;96543;-69
2023/10/15 00:20:34;;;;;;;;;4.00;3.60;;;;;17.21;100.00;98388.69;6194493;28;96650;-69
2023/10/15 00:23:38;;;;;;;;;5.00;4.80;;;;;17.28;100.00;98407.47;6194372;28;97353;-69
2023/10/15 00:26:41;;;;;;;;;4.00;4.00;;;;;17.34;100.00;98403.66;6213343;28;96925;-65
2023/10/15 00:29:48;;;;;;;;;5.40;5.00;;;;;17.14;100.00;98404.53;6194961;28;96296;-65
2023/10/15 00:32:52;;;;;;;;;5.00;4.00;;;;;17.14;100.00;98399.06;6194677;28;96695;-64
2023/10/15 00:35:57;;;;;;;;;3.25;3.00;;;;;17.17;100.00;98401.22;6193259;28;97257;-65
2023/10/15 00:39:00;;;;;;;;;4.00;4.00;;;;;17.23;100.00;98397.41;6194785;28;96293;-65
2023/10/15 00:42:03;;;;;;;;;5.40;4.00;;;;;17.25;100.00;98399.88;6203178;28;96523;-64
2023/10/15 00:45:07;;;;;;;;;4.00;4.00;;;;;17.19;100.00;98385.44;6202703;28;97018;-65
2023/10/15 00:48:11;;;;;;;;;7.40;5.40;;;;;17.16;100.00;98366.91;6237162;28;96642;-64
2023/10/15 00:51:20;;;;;;;;;6.00;5.75;;;;;17.23;100.00;98378.34;6218492;28;96757;-65
2023/10/15 00:54:24;;;;;;;;;6.00;6.00;;;;;17.21;100.00;98391.41;6190287;28;97075;-64
2023/10/15 00:57:41;;;;;;;;;4.80;3.80;;;;;17.27;100.00;98403.94;6179559;28;96522;-64
2023/10/15 01:00:52;;;;;;;;;3.00;2.00;;;;;17.26;100.00;98421.38;6211827;28;96566;-64
2023/10/15 01:03:57;;;;;;;;;4.00;4.00;;;;;17.32;100.00;98412.09;6241636;22;97576;-64
2023/10/15 01:07:14;;;;;;;;;4.00;4.00;;;;;17.27;100.00;98414.84;6222749;28;97740;-64
2023/10/15 01:10:26;;;;;;;;;3.25;3.00;;;;;17.22;100.00;98414.84;6241035;28;96336;-64
2023/10/15 01:13:31;;;;;;;;;4.80;4.00;;;;;17.21;100.00;98396.84;6184471;28;96726;-64
2023/10/15 01:16:35;;;;;;;;;4.00;4.00;;;;;17.23;100.00;98402.03;6198405;28;96354;-64
2023/10/15 01:19:39;;;;;;;;;3.33;3.33;;;;;17.17;100.00;98390.34;6197700;28;96863;-64
2023/10/15 01:22:43;;;;;;;;;3.00;3.00;;;;;17.24;100.00;98371.00;6183674;28;96796;-65
2023/10/15 01:25:50;;;;;;;;;4.00;4.00;;;;;17.31;100.00;98372.31;6200048;28;96590;-65
2023/10/15 01:28:53;;;;;;;;;6.00;6.00;;;;;17.36;100.00;98357.03;6156448;28;96944;-65
2023/10/15 01:31:58;;;;;;;;;5.00;5.00;;;;;17.41;100.00;98360.56;6213519;28;96902;-65
2023/10/15 01:35:08;;;;;;;;;4.00;4.00;;;;;17.42;100.00;98347.75;6209045;28;97064;-64
2023/10/15 01:38:17;;;;;;;;;5.50;4.50;;;;;17.44;100.00;98353.75;6222583;28;96842;-63
2023/10/15 01:41:25;;;;;;;;;5.75;5.75;;;;;17.38;100.00;98363.84;6240391;28;96664;-63
2023/10/15 01:44:28;;;;;;;;;3.00;3.00;;;;;17.27;100.00;98373.97;6212058;28;96929;-63
2023/10/15 01:47:35;;;;;;;;;3.20;3.00;;;;;17.29;100.00;98373.69;6208777;28;96380;-62
2023/10/15 01:50:44;;;;;;;;;3.00;3.00;;;;;17.29;100.00;98360.91;6198873;28;98300;-63
2023/10/15 01:53:47;;;;;;;;;5.00;5.00;;;;;17.17;100.00;98381.34;6209421;28;96334;-63
2023/10/15 01:56:55;;;;;;;;;5.40;5.40;;;;;17.00;100.00;98376.22;6208267;28;96999;-63
2023/10/15 02:00:05;;;;;;;;;5.00;4.00;;;;;17.02;100.00;98371.31;6198874;28;96316;-62
2023/10/15 02:03:14;;;;;;;;;4.00;4.00;;;;;17.08;100.00;98378.38;6222462;28;96600;-63
2023/10/15 02:06:19;;;;;;;;;5.00;5.00;;;;;17.07;100.00;98393.09;6219543;28;96255;-62
2023/10/15 02:09:23;;;;;;;;;3.00;3.00;;;;;17.04;100.00;98377.31;6216389;28;98156;-63
2023/10/15 02:12:28;;;;;;;;;5.25;4.75;;;;;17.09;100.00;98371.03;6228864;28;96591;-64
2023/10/15 02:15:37;;;;;;;;;4.00;4.00;;;;;17.05;100.00;98354.44;6206469;28;96443;-63
2023/10/15 02:18:44;;;;;;;;;5.00;4.00;;;;;17.03;100.00;98366.69;6218376;28;96240;-63
2023/10/15 02:21:51;;;;;;;;;3.00;3.00;;;;;17.08;100.00;98364.75;6211720;28;96878;-63
2023/10/15 02:24:56;;;;;;;;;5.00;4.60;;;;;17.07;100.00;98360.41;6219550;28;96754;-63
2023/10/15 02:28:00;;;;;;;;;3.40;3.00;;;;;17.05;100.00;98370.78;6215890;28;96259;-62
2023/10/15 02:31:14;;;;;;;;;6.50;5.75;;;;;17.06;100.00;98358.75;6215862;28;96376;-63
2023/10/15 02:34:24;;;;;;;;;5.00;4.60;;;;;17.06;100.00;98366.13;6185124;28;97659;-64
2023/10/15 02:37:28;;;;;;;;;3.00;3.00;;;;;17.06;100.00;98368.84;6215547;28;96681;-63
2023/10/15 02:40:56;;;;;;;;;5.00;4.40;;;;;17.03;100.00;98359.31;6197301;28;97026;-63
2023/10/15 02:44:03;;;;;;;;;3.60;3.60;;;;;17.13;100.00;98369.38;6213914;28;96740;-63
2023/10/15 02:47:19;;;;;;;;;3.00;3.00;;;;;17.19;100.00;98374.53;6215929;28;96373;-63
2023/10/15 02:50:26;;;;;;;;;5.00;3.60;;;;;17.15;100.00;98359.81;6215590;28;96324;-63
2023/10/15 02:53:34;;;;;;;;;5.00;4.20;;;;;17.09;100.00;98347.34;6220654;28;96201;-62
2023/10/15 02:56:37;;;;;;;;;6.00;5.00;;;;;17.04;100.00;98355.50;6198018;28;96469;-63
2023/10/15 02:59:50;;;;;;;;;4.00;4.00;;;;;16.95;100.00;98356.34;6214847;28;96589;-63
2023/10/15 03:02:53;;;;;;;;;6.00;5.00;;;;;16.95;100.00;98354.44;6183703;28;96941;-64
2023/10/15 03:05:57;;;;;;;;;8.75;8.00;;;;;16.98;100.00;98358.50;6190507;28;96392;-63
2023/10/15 03:09:01;;;;;;;;;6.40;6.40;;;;;16.97;100.00;98395.81;6187432;28;97173;-63
2023/10/15 03:12:04;;;;;;;;;5.00;4.00;;;;;16.96;100.00;98410.53;6188094;28;96567;-63
2023/10/15 03:15:11;;;;;;;;;5.00;5.00;;;;;16.97;100.00;98408.63;6187396;28;97212;-63
2023/10/15 03:18:15;;;;;;;;;5.00;4.40;;;;;16.88;100.00;98397.47;6188747;28;96576;-63
2023/10/15 03:21:26;;;;;;;;;6.80;6.00;;;;;16.86;100.00;98391.47;6187122;28;97126;-63
2023/10/15 03:24:33;;;;;;;;;5.00;5.00;;;;;16.78;100.00;98409.19;6191774;28;97513;-63
2023/10/15 03:27:38;;;;;;;;;8.00;7.60;;;;;16.82;100.00;98421.16;6187393;28;97721;-64
2023/10/15 03:30:45;;;;;;;;;6.80;6.80;;;;;16.76;100.00;98435.84;6186702;28;96822;-63
2023/10/15 03:34:13;;;;;;;;;7.00;6.40;;;;;16.79;100.00;98419.00;6186168;28;96541;-63
2023/10/15 03:37:16;;;;;;;;;5.50;5.50;;;;;16.71;100.00;98411.34;6164210;28;96717;-63
2023/10/15 03:40:30;;;;;;;;;8.00;7.60;;;;;16.72;100.00;98429.31;6164206;28;97211;-63
2023/10/15 03:43:35;;;;;;;;;6.25;6.25;;;;;16.71;100.00;98438.56;6193321;28;97486;-63
2023/10/15 03:46:41;;;;;;;;;6.00;5.00;;;;;16.62;100.00;98425.78;6196917;28;96277;-63
2023/10/15 03:49:46;;;;;;;;;6.00;6.00;;;;;16.62;100.00;98413.00;6214344;28;96450;-63
2023/10/15 03:52:50;;;;;;;;;5.20;4.00;;;;;16.61;100.00;98400.50;6189149;28;96990;-63
2023/10/15 03:55:56;;;;;;;;;8.00;7.50;;;;;16.60;100.00;98409.75;6188618;28;96338;-64
2023/10/15 03:58:59;;;;;;;;;7.00;7.00;;;;;16.57;100.00;98421.13;6177026;28;96733;-61
2023/10/15 04:02:06;;;;;;;;;5.00;5.00;;;;;16.61;100.00;98405.94;6195373;28;96518;-62
2023/10/15 04:05:12;;;;;;;;;5.80;4.40;;;;;16.59;100.00;98402.66;6205475;28;97961;-64
2023/10/15 04:08:18;;;;;;;;;7.00;6.00;;;;;16.57;100.00;98412.13;6189558;28;96302;-61
2023/10/15 04:11:29;;;;;;;;;3.60;3.60;;;;;16.45;100.00;98415.97;6190302;28;96219;-61
2023/10/15 04:14:32;;;;;;;;;4.00;4.00;;;;;16.45;100.00;98405.09;6188274;28;96498;-61
2023/10/15 04:17:37;;;;;;;;;4.20;4.20;;;;;16.35;100.00;98413.22;6214667;28;96554;-61
2023/10/15 04:20:42;;;;;;;;;4.00;4.00;;;;;16.32;100.00;98418.41;6181322;28;96735;-61
2023/10/15 04:23:49;;;;;;;;;5.00;5.00;;;;;16.27;100.00;98427.34;6190130;28;96354;-61
2023/10/15 04:26:53;;;;;;;;;6.00;6.00;;;;;16.25;100.00;98431.44;6172948;28;96656;-61
2023/10/15 04:30:00;;;;;;;;;6.00;5.60;;;;;16.27;100.00;98445.59;6191228;28;96434;-63
2023/10/15 04:33:08;;;;;;;;;4.00;4.00;;;;;16.27;100.00;98451.81;6196570;28;98451;-62
2023/10/15 04:36:12;;;;;;;;;5.00;5.00;;;;;16.20;100.00;98462.16;6191365;28;96865;-61
2023/10/15 04:39:16;;;;;;;;;4.00;4.00;;;;;16.20;100.00;98464.88;6208512;28;96332;-61
2023/10/15 04:42:30;;;;;;;;;4.00;3.00;;;;;16.15;100.00;98480.38;6194642;28;96429;-60
2023/10/15 04:45:41;;;;;;;;;5.00;4.00;;;;;16.07;100.00;98475.47;6219898;28;96304;-61
2023/10/15 04:48:49;;;;;;;;;5.40;3.00;;;;;15.98;100.00;98486.81;6187995;28;98706;-61
2023/10/15 04:51:53;;;;;;;;;4.40;3.40;;;;;15.98;100.00;98477.84;6202657;28;96225;-61
2023/10/15 04:54:56;;;;;;;;;4.60;4.00;;;;;15.95;100.00;98478.38;6219979;28;96653;-62
2023/10/15 04:57:59;;;;;;;;;4.00;4.00;;;;;15.93;100.00;98484.09;6218085;28;96270;-61
2023/10/15 05:01:04;;;;;;;;;4.00;4.00;;;;;15.88;100.00;98480.56;6185032;28;96325;-61
2023/10/15 05:04:09;;;;;;;;;4.00;4.00;;;;;15.92;100.00;98465.34;6230469;28;96461;-61
2023/10/15 05:07:15;;;;;;;;;4.00;3.00;;;;;15.90;100.00;98467.50;6219429;28;96296;-61
2023/10/15 05:10:20;;;;;;;;;5.00;3.00;;;;;15.93;100.00;98480.59;6199933;28;96458;-62
2023/10/15 05:13:24;;;;;;;;;3.60;3.60;;;;;15.92;100.00;98471.59;6235987;28;96915;-62
2023/10/15 05:16:28;;;;;;;;;4.00;3.60;;;;;15.92;100.00;98481.66;6232542;28;97794;-62
2023/10/15 05:19:32;;;;;;;;;6.00;5.00;;;;;15.90;100.00;98472.94;6200495;28;96421;-62
2023/10/15 05:22:35;;;;;;;;;2.80;2.80;;;;;15.75;100.00;98486.47;6218111;28;96334;-62
2023/10/15 05:25:39;;;;;;;;;4.00;3.00;;;;;15.72;100.00;98481.56;6207582;28;97801;-63
2023/10/15 05:28:43;;;;;;;;;4.20;4.00;;;;;15.64;100.00;98482.06;6183986;28;97347;-62
2023/10/15 05:31:46;;;;;;;;;4.00;3.00;;;;;15.66;100.00;98474.47;6217016;28;97200;-63
2023/10/15 05:34:51;;;;;;;;;4.40;3.00;;;;;15.65;100.00;98467.38;6216151;28;96356;-62
2023/10/15 05:37:55;;;;;;;;;3.40;3.00;;;;;15.62;100.00;98473.34;6197164;28;96474;-62
2023/10/15 05:40:58;;;;;;;;;4.00;3.50;;;;;15.62;100.00;98479.63;6205927;28;98718;-62
2023/10/15 05:44:02;;;;;;;;;3.00;3.00;;;;;15.60;100.00;98477.16;6186344;28;97485;-63
2023/10/15 05:47:06;;;;;;;;;4.20;4.00;;;;;15.57;100.00;98469.53;6223070;27;96923;-62
2023/10/15 05:50:13;;;;;;;;;3.00;2.00;;;;;15.55;100.00;98481.75;6216599;28;96325;-63
2023/10/15 05:53:16;;;;;;;;;5.20;5.00;;;;;15.56;100.00;98477.94;6217118;28;98152;-62
2023/10/15 05:56:21;;;;;;;;;4.00;3.00;;;;;15.55;100.00;98484.44;6203470;28;98464;-62
2023/10/15 05:59:24;;;;;;;;;3.00;2.20;;;;;15.73;100.00;98483.22;6194301;28;96708;-63
2023/10/15 06:02:27;;;;;;;;;4.00;4.00;;;;;15.98;100.00;98486.81;6205372;28;97648;-62
2023/10/15 06:05:32;;;;;;;;;5.00;4.40;;;;;16.33;100.00;98494.28;6208339;28;96327;-63
2023/10/15 06:08:35;;;;;;;;;3.00;3.00;;;;;16.80;100.00;98501.47;6203569;28;96519;-62
2023/10/15 06:11:38;;;;;;;;;4.00;3.20;;;;;17.30;100.00;98509.63;6197493;28;97191;-63
2023/10/15 06:14:41;;;;;;;;;3.60;3.00;;;;;17.93;100.00;98507.34;6212330;28;96430;-62
2023/10/15 06:17:46;;;;;;;;;7.00;6.00;;;;;18.59;100.00;98512.50;6225909;28;96667;-69
2023/10/15 06:20:51;;;;;;;;;3.60;3.60;;;;;19.50;100.00;98514.50;6214774;28;97250;-69
2023/10/15 06:23:54;;;;;;;;;12.40;12.40;;;;;20.74;100.00;98515.19;6178947;28;97398;-69
2023/10/15 06:26:57;;;;;;;;;23.00;23.00;;;;;22.73;100.00;98521.41;6181930;28;97053;-69
2023/10/15 06:30:00;;;;;;;;;11.71;11.71;;;;;24.85;93.54;98531.41;6198867;28;97233;-66
2023/10/15 06:33:04;;;;;;;;;14.00;12.40;;;;;26.44;83.10;98530.06;6216143;28;96565;-70
2023/10/15 06:36:09;;;;;;;;;6.00;5.00;;;;;28.18;76.43;98547.63;6193095;28;96730;-69
2023/10/15 06:39:12;;;;;;;;;4.00;4.00;;;;;29.40;64.66;98551.84;6206626;28;96445;-69
2023/10/15 06:42:15;;;;;;;;;2.00;2.00;;;;;29.66;63.37;98548.59;6179274;28;98682;-69
2023/10/15 06:45:19;;;;;;;;;2.00;2.00;;;;;27.75;70.25;98553.63;6194190;28;96654;-69
2023/10/15 06:48:23;;;;;;;;;4.00;4.00;;;;;25.96;80.39;98558.06;6206808;28;97705;-69
2023/10/15 06:51:28;;;;;;;;;2.00;2.00;;;;;24.79;84.63;98551.97;6199388;28;96345;-68
2023/10/15 06:54:31;;;;;;;;;2.00;2.00;;;;;25.61;80.99;98551.06;6170166;28;96984;-68
2023/10/15 06:57:38;;;;;;;;;3.00;3.00;;;;;26.67;76.25;98561.03;6199471;28;96408;-69
2023/10/15 07:00:41;;;;;;;;;4.00;4.00;;;;;28.34;69.56;98566.00;6198869;28;96464;-66
2023/10/15 07:03:45;;;;;;;;;3.00;3.00;;;;;30.11;59.68;98568.47;6191257;28;96331;-70
2023/10/15 07:06:49;;;;;;;;;3.00;3.00;;;;;31.63;48.75;98576.00;6169080;28;97132;-69
2023/10/15 07:09:53;;;;;;;;;4.00;2.00;;;;;32.75;44.90;98570.00;6209104;28;96804;-69
2023/10/15 07:12:56;;;;;;;;;3.60;3.00;;;;;31.03;50.09;98578.31;6211358;28;96501;-69
2023/10/15 07:16:00;;;;;;;;;3.00;2.40;;;;;29.12;56.81;98579.56;6204574;28;96674;-69
2023/10/15 07:19:04;;;;;;;;;2.00;2.00;;;;;27.01;68.50;98582.94;6211154;28;97303;-69
2023/10/15 07:22:08;;;;;;;;;4.00;3.60;;;;;25.00;76.90;98583.34;6183212;28;96628;-68
2023/10/15 07:25:11;;;;;;;;;2.20;2.00;;;;;23.58;82.70;98581.81;6188381;28;96244;-68
2023/10/15 07:28:18;;;;;;;;;4.00;3.60;;;;;22.40;87.76;98587.47;6178299;28;96620;-68
2023/10/15 07:31:21;;;;;;;;;3.50;3.00;;;;;23.90;83.03;98577.09;6191738;28;96680;-68
2023/10/15 07:34:26;;;;;;;;;3.50;3.50;;;;;27.01;70.32;98573.81;6199188;28;96358;-69
2023/10/15 07:37:30;;;;;;;;;3.00;3.00;;;;;29.68;53.58;98571.25;6173134;28;96499;-69
2023/10/15 07:40:34;;;;;;;;;3.00;3.00;;;;;31.99;43.63;98575.50;6192315;28;97434;-69
2023/10/15 07:43:37;;;;;;;;;2.00;2.00;;;;;33.40;38.08;98576.13;6179170;28;97028;-68
2023/10/15 07:46:42;;;;;;;;;4.40;4.00;;;;;34.42;33.80;98575.66;6201416;28;97107;-69
2023/10/15 07:49:46;;;;;;;;;2.00;2.00;;;;;35.86;30.84;98574.91;6194397;28;98433;-69
2023/10/15 07:52:51;;;;;;;;;3.00;3.00;;;;;34.35;32.04;98582.81;6194677;28;96443;-69
2023/10/15 07:55:55;;;;;;;;;2.00;2.00;;;;;31.76;40.95;98580.25;6181534;28;96580;-69
2023/10/15 07:58:58;;;;;;;;;3.20;3.20;;;;;29.91;44.08;98561.19;6208523;28;96809;-69
2023/10/15 08:02:02;;;;;;;;;3.75;3.75;;;;;30.22;46.62;98567.94;6178278;28;96399;-69
2023/10/15 08:05:06;;;;;;;;;4.00;2.60;;;;;29.50;49.78;98565.22;6209650;28;96326;-69
2023/10/15 08:08:12;;;;;;;;;3.00;3.00;;;;;27.96;56.97;98554.34;6193452;28;96471;-69
2023/10/15 08:11:15;;;;;;;;;2.00;2.00;;;;;27.20;59.67;98557.56;6193957;28;96876;-70
2023/10/15 08:14:19;;;;;;;;;3.00;3.00;;;;;26.15;66.08;98547.44;6207307;28;96411;-70
2023/10/15 08:17:23;;;;;;;;;3.00;2.00;;;;;25.31;68.01;98555.59;6175944;28;98602;-70
2023/10/15 08:20:27;;;;;;;;;3.00;3.00;;;;;25.29;71.93;98558.69;6202161;28;96354;-69
2023/10/15 08:23:32;;;;;;;;;2.00;2.00;;;;;25.50;71.13;98552.50;6210642;28;96898;-69
2023/10/15 08:26:37;;;;;;;;;3.00;3.00;;;;;26.40;69.80;98558.72;6208564;28;96209;-70
2023/10/15 08:29:41;;;;;;;;;5.25;4.25;;;;;26.66;63.30;98557.44;6197352;28;98586;-69
2023/10/15 08:32:45;;;;;;;;;3.25;3.25;;;;;27.52;59.07;98559.56;6222298;28;96577;-69
2023/10/15 08:35:49;;;;;;;;;2.40;2.40;;;;;28.19;56.84;98558.38;6211471;28;96316;-68
2023/10/15 08:38:54;;;;;;;;;4.20;3.80;;;;;28.71;53.79;98564.03;6230364;28;96490;-70
2023/10/15 08:42:00;;;;;;;;;2.00;2.00;;;;;28.87;49.41;98569.69;6222651;28;96802;-70
2023/10/15 08:45:05;;;;;;;;;2.00;1.60;;;;;28.68;46.47;98561.13;6202157;28;97304;-70
2023/10/15 08:48:12;;;;;;;;;2.00;1.20;;;;;28.10;49.66;98557.59;6211731;28;96317;-68
2023/10/15 08:51:21;;;;;;;;;2.60;2.60;;;;;27.86;51.55;98561.16;6200098;28;97494;-69
2023/10/15 08:54:26;;;;;;;;;4.00;4.00;;;;;27.27;54.35;98534.88;6212535;28;96507;-69
2023/10/15 08:57:31;;;;;;;;;2.25;2.25;;;;;27.06;53.55;98563.38;6215385;28;96513;-67
2023/10/15 09:00:36;;;;;;;;;3.00;3.00;;;;;26.60;57.64;98556.00;6204420;28;96853;-69
2023/10/15 09:03:40;;;;;;;;;3.00;2.40;;;;;26.02;61.12;98556.75;6187571;28;97227;-68
2023/10/15 09:06:47;;;;;;;;;3.00;3.00;;;;;25.10;59.25;98549.94;6184456;28;96423;-69
2023/10/15 09:09:52;;;;;;;;;3.00;3.00;;;;;24.37;62.12;98556.28;6168703;28;96812;-69
2023/10/15 09:12:55;;;;;;;;;3.40;3.40;;;;;23.59;65.90;98549.59;6188658;28;96341;-71
2023/10/15 09:15:58;;;;;;;;;2.60;2.60;;;;;23.33;70.77;98557.63;6183617;28;96707;-68
2023/10/15 09:19:06;;;;;;;;;3.00;2.00;;;;;22.91;79.32;98545.19;6182142;28;96375;-69
2023/10/15 09:22:14;;;;;;;;;5.00;5.00;;;;;22.37;81.80;98546.91;6184931;28;96655;-69
2023/10/15 09:25:19;;;;;;;;;4.00;4.00;;;;;22.01;82.56;98554.22;6173632;28;97274;-69
2023/10/15 09:28:23;;;;;;;;;4.33;4.33;;;;;21.70;85.57;98547.66;6184527;28;96453;-69
2023/10/15 09:31:26;;;;;;;;;4.80;4.80;;;;;21.40;88.08;98543.53;6188077;28;97106;-69
2023/10/15 09:34:30;;;;;;;;;5.00;5.00;;;;;21.15;88.97;98539.28;6187159;28;96607;-68
2023/10/15 09:37:35;;;;;;;;;4.00;4.00;;;;;20.92;85.55;98529.97;6187751;28;96758;-69
2023/10/15 09:40:39;;;;;;;;;4.40;4.00;;;;;20.51;87.77;98531.69;6188503;28;99620;-68
2023/10/15 09:43:45;;;;;;;;;4.20;3.20;;;;;20.18;88.63;98525.25;6193532;28;96577;-69
2023/10/15 09:46:48;;;;;;;;;4.20;4.20;;;;;19.97;91.41;98529.34;6188029;28;96412;-71
2023/10/15 09:49:54;;;;;;;;;2.00;2.00;;;;;19.75;94.36;98530.66;6191450;28;96630;-64
2023/10/15 09:53:01;;;;;;;;;4.00;3.00;;;;;19.48;95.38;98537.78;6190183;28;96583;-64
2023/10/15 09:56:12;;;;;;;;;3.00;3.00;;;;;19.08;98.64;98528.81;6182113;28;98694;-64
2023/10/15 09:59:17;;;;;;;;;4.00;4.00;;;;;18.90;98.47;98535.78;6182557;28;96631;-64
2023/10/15 10:02:27;;;;;;;;;4.00;3.20;;;;;18.74;98.97;98527.97;6194453;28;96579;-64
2023/10/15 10:05:44;;;;;;;;;4.40;4.40;;;;;18.85;100.00;98530.34;6213034;28;97705;-65
2023/10/15 10:09:10;;;;;;;;;4.00;4.00;;;;;19.03;95.17;98515.19;6202164;28;97726;-64
2023/10/15 10:12:28;;;;;;;;;6.40;5.40;;;;;19.22;92.75;98516.13;6209374;28;98203;-64
2023/10/15 10:15:41;;;;;;;;;5.00;5.00;;;;;19.13;90.19;98504.16;6196243;28;96342;-65
2023/10/15 10:18:45;;;;;;;;;7.25;6.00;;;;;19.01;87.29;98510.00;6188473;28;97013;-64
2023/10/15 10:21:48;;;;;;;;;3.60;3.60;;;;;18.82;88.58;98502.78;6193810;28;96518;-64
2023/10/15 10:24:51;;;;;;;;;2.00;2.00;;;;;19.04;88.30;98503.16;6194668;28;97372;-64
2023/10/15 10:28:07;;;;;;;;;5.00;4.00;;;;;19.24;88.53;98502.16;6196173;28;99095;-63
2023/10/15 10:31:19;;;;;;;;;3.50;3.50;;;;;19.48;88.11;98497.59;6216107;28;96250;-64
2023/10/15 10:34:30;;;;;;;;;4.00;3.00;;;;;19.76;86.69;98499.47;6203217;28;96343;-65
2023/10/15 10:37:33;;;;;;;;;5.00;4.00;;;;;19.96;85.33;98498.44;6205412;28;96545;-64
2023/10/15 10:40:47;;;;;;;;;5.00;4.67;;;;;20.04;84.39;98499.69;6216055;28;96288;-64
2023/10/15 10:43:52;;;;;;;;;5.00;5.00;;;;;19.89;84.73;98484.28;6215792;28;96885;-64
2023/10/15 10:47:23;;;;;;;;;4.00;4.00;;;;;20.22;85.93;98496.19;6212384;28;98448;-64
2023/10/15 10:50:45;;;;;;;;;5.00;3.60;;;;;20.03;84.51;98476.19;6198183;28;96735;-65
2023/10/15 10:54:25;;;;;;;;;3.00;3.00;;;;;20.04;85.02;98483.28;6215820;28;96399;-64
2023/10/15 10:57:31;;;;;;;;;3.00;3.00;;;;;19.81;83.84;98479.44;6182616;28;97227;-64
2023/10/15 11:00:36;;;;;;;;;4.00;4.00;;;;;19.81;84.15;98479.44;6209470;28;96366;-63
2023/10/15 11:03:40;;;;;;;;;6.40;6.00;;;;;19.97;85.98;98478.19;6182570;28;97122;-64
2023/10/15 11:06:45;;;;;;;;;3.00;2.00;;;;;20.02;84.05;98475.38;6181543;28;98406;-63
2023/10/15 11:09:49;;;;;;;;;2.00;2.00;;;;;19.98;82.20;98476.25;6188783;28;96463;-63
2023/10/15 11:12:53;;;;;;;;;5.00;4.40;;;;;19.81;81.83;98473.97;6185026;28;96931;-62
2023/10/15 11:15:58;;;;;;;;;5.60;5.40;;;;;19.82;81.69;98465.50;6167441;28;98327;-61
2023/10/15 11:19:01;;;;;;;;;4.25;4.00;;;;;19.73;81.92;98471.91;6174677;28;96704;-64
2023/10/15 11:22:04;;;;;;;;;4.75;4.00;;;;;19.74;84.16;98468.84;6184329;28;96531;-63
2023/10/15 11:25:14;;;;;;;;;5.00;4.00;;;;;19.66;81.29;98465.94;6172400;28;96971;-64
2023/10/15 11:28:18;;;;;;;;;4.80;3.80;;;;;19.48;84.68;98470.25;6187262;28;97087;-63
2023/10/15 11:31:23;;;;;;;;;3.00;3.00;;;;;19.32;79.39;98472.28;6181413;28;96895;-63
2023/10/15 11:34:28;;;;;;;;;4.60;4.60;;;;;19.24;79.59;98464.72;6183865;28;96307;-63
2023/10/15 11:37:35;;;;;;;;;4.00;4.00;;;;;18.89;76.54;98459.56;6172887;28;97320;-63
2023/10/15 11:40:39;;;;;;;;;4.00;4.00;;;;;18.84;73.66;98462.34;6172444;28;96740;-62
2023/10/15 11:43:43;;;;;;;;;5.00;5.00;;;;;18.97;76.84;98456.22;6185853;28;98641;-63
2023/10/15 11:46:48;;;;;;;;;3.60;2.60;;;;;19.06;75.27;98448.25;6186487;28;96720;-61
2023/10/15 11:49:51;;;;;;;;;4.50;4.00;;;;;18.87;74.84;98443.47;6188766;28;96500;-61
2023/10/15 11:52:55;;;;;;;;;3.00;3.00;;;;;19.10;79.07;98454.75;6182153;28;98396;-61
2023/10/15 11:55:58;;;;;;;;;6.25;6.00;;;;;19.49;79.10;98455.50;6187536;28;96366;-60
2023/10/15 11:59:02;;;;;;;;;4.00;4.00;;;;;19.71;78.87;98458.50;6180216;28;96986;-60
2023/10/15 12:02:10;;;;;;;;;4.20;4.20;;;;;19.96;76.54;98468.31;6167379;28;96327;-61
2023/10/15 12:05:15;;;;;;;;;2.00;2.00;;;;;20.18;76.76;98463.09;6185222;28;96122;-61
2023/10/15 12:08:21;;;;;;;;;4.00;3.80;;;;;20.16;76.60;98467.25;6173643;28;98546;-61
2023/10/15 12:11:25;;;;;;;;;3.40;3.00;;;;;20.19;73.58;98475.69;6180336;28;96976;-61
2023/10/15 12:14:29;;;;;;;;;5.25;5.25;;;;;19.87;73.71;98476.38;6213189;28;97213;-60
2023/10/15 12:17:33;;;;;;;;;3.75;3.75;;;;;19.51;75.55;98482.53;6213033;28;96637;-60
2023/10/15 12:20:37;;;;;;;;;5.60;5.60;;;;;19.36;77.79;98467.06;6211149;28;96739;-60
2023/10/15 12:23:43;;;;;;;;;4.00;4.00;;;;;19.23;78.75;98476.75;6210580;28;96544;-61
2023/10/15 12:26:46;;;;;;;;;3.40;3.40;;;;;19.12;81.04;98471.66;6199011;28;96498;-62
2023/10/15 12:29:51;;;;;;;;;2.00;2.00;;;;;19.05;81.49;98463.81;6210260;28;97153;-61
2023/10/15 12:32:58;;;;;;;;;2.00;2.00;;;;;19.20;82.70;98487.47;6198192;28;98537;-60
2023/10/15 12:36:02;;;;;;;;;5.00;5.00;;;;;19.32;83.85;98488.69;6211558;28;96613;-61
2023/10/15 12:39:06;;;;;;;;;5.00;5.00;;;;;19.37;84.62;98474.97;6208756;28;96328;-60
2023/10/15 12:42:11;;;;;;;;;5.50;5.00;;;;;19.50;86.37;98461.78;6190519;28;96962;-61
2023/10/15 12:45:14;;;;;;;;;4.00;3.00;;;;;19.39;81.71;98474.69;6193672;28;98852;-63
2023/10/15 12:48:19;;;;;;;;;8.00;8.00;;;;;19.20;83.46;98480.06;6209321;28;96652;-63
2023/10/15 12:51:23;;;;;;;;;4.00;4.00;;;;;18.87;86.10;98495.34;6202990;28;96604;-64
2023/10/15 12:54:26;;;;;;;;;4.40;3.40;;;;;18.50;88.08;98500.50;6188785;28;96953;-63
2023/10/15 12:57:29;;;;;;;;;5.60;4.60;;;;;18.41;90.44;98491.28;6202877;28;97499;-63
2023/10/15 13:00:32;;;;;;;;;3.00;2.50;;;;;18.20;92.11;98498.75;6193089;28;96615;-64
2023/10/15 13:03:37;;;;;;;;;5.00;5.00;;;;;18.14;91.93;98516.25;6186386;28;100337;-60
2023/10/15 13:06:41;;;;;;;;;6.00;5.40;;;;;18.03;93.03;98498.31;6184422;28;97341;-61
2023/10/15 13:09:44;;;;;;;;;5.60;5.00;;;;;17.86;92.36;98517.72;6190539;28;96889;-60
2023/10/15 13:12:49;;;;;;;;;4.00;3.00;;;;;17.79;93.23;98514.47;6172412;28;96439;-60
2023/10/15 13:15:52;;;;;;;;;5.00;5.00;;;;;17.64;92.96;98498.97;6178836;28;97321;-64
2023/10/15 13:18:56;;;;;;;;;7.00;6.60;;;;;17.64;94.89;98490.00;6185481;28;96726;-63
2023/10/15 13:22:04;;;;;;;;;4.00;4.00;;;;;17.72;94.14;98457.50;6188897;28;96668;-63
2023/10/15 13:25:08;;;;;;;;;5.00;5.00;;;;;17.97;90.43;98462.06;6170431;28;97053;-64
2023/10/15 13:28:12;;;;;;;;;4.67;4.67;;;;;18.23;91.03;98443.63;6188780;28;97217;-70
2023/10/15 13:31:15;;;;;;;;;3.00;3.00;;;;;18.45;88.90;98457.69;6185624;28;96814;-69
2023/10/15 13:34:19;;;;;;;;;3.00;3.00;;;;;18.49;88.03;98450.56;6195495;28;96535;-67
2023/10/15 13:37:22;;;;;;;;;2.00;2.00;;;;;18.55;87.43;98462.28;6188499;28;96815;-68
2023/10/15 13:40:25;;;;;;;;;2.40;2.00;;;;;18.47;87.22;98480.03;6189693;28;96583;-68
2023/10/15 13:43:28;;;;;;;;;2.00;1.00;;;;;18.35;87.36;98489.69;6194953;28;96293;-68
2023/10/15 13:46:32;;;;;;;;;4.50;3.50;;;;;17.94;90.39;98464.50;6190499;28;96213;-68
2023/10/15 13:49:36;;;;;;;;;1.00;1.00;;;;;17.90;89.39;98485.25;6185709;28;96435;-68
2023/10/15 13:52:41;;;;;;;;;3.00;2.60;;;;;17.88;91.46;98463.72;6189989;28;96466;-68
2023/10/15 13:55:44;;;;;;;;;1.40;1.40;;;;;17.74;89.70;98468.13;6172240;28;98633;-71
2023/10/15 13:58:48;;;;;;;;;2.00;2.00;;;;;17.70;88.26;98462.41;6171968;28;96798;-70
2023/10/15 14:01:51;;;;;;;;;2.50;2.00;;;;;17.66;89.38;98453.16;6169081;28;97212;-71
2023/10/15 14:04:55;;;;;;;;;2.00;2.00;;;;;17.54;88.91;98465.47;6198620;28;96333;-71
2023/10/15 14:07:59;;;;;;;;;2.00;1.00;;;;;17.44;90.95;98473.66;6174607;28;96264;-70
2023/10/15 14:11:03;;;;;;;;;2.60;2.00;;;;;17.39;91.88;98481.84;6214244;28;97643;-71
2023/10/15 14:14:06;;;;;;;;;2.20;2.20;;;;;17.25;91.28;98481.59;6187946;28;96742;-71
2023/10/15 14:17:10;;;;;;;;;2.80;1.80;;;;;17.43;92.19;98481.00;6186678;28;99700;-70
2023/10/15 14:20:15;;;;;;;;;2.50;2.50;;;;;17.77;91.29;98464.84;6189458;28;96632;-71
2023/10/15 14:23:20;;;;;;;;;5.00;5.00;;;;;17.98;90.87;98455.50;6192607;28;97245;-70
2023/10/15 14:26:23;;;;;;;;;4.33;4.33;;;;;17.90;91.13;98444.34;6212889;28;96623;-70
2023/10/15 14:29:26;;;;;;;;;3.00;3.00;;;;;17.65;92.16;98450.72;6198678;28;96351;-71